Time;durP1;ratioP1;P1;durP2;ratioP2;P2;SDS_P1;SDS_P2;PMS_P1;PMS_P2;Temp;Humidity;BMP_temperature;BMP_pressure;BME280_temperature;BME280_humidity;BME280_pressure;Samples;Min_cycle;Max_cycle;Signal;HPM_P1;HPM_P2
2022/01/23 00:00:17;;;;;;;;;;;;;;;-5.98;90.20;101093.16;5135813;27;19930;-72
2022/01/23 00:02:44;;;;;;;;;;;;;;;-5.94;89.75;101089.00;5135536;27;19927;-71
2022/01/23 00:05:10;;;;;;;;;;;;;;;-5.88;90.16;101075.53;5135557;27;19976;-72
2022/01/23 00:07:40;;;;;;;;;;;;;;;-5.86;90.72;101071.34;5130901;27;19927;-72
2022/01/23 00:10:09;;;;;;;;;;;;;;;-5.84;91.28;101059.56;5135769;27;20259;-77
2022/01/23 00:12:41;;;;;;;;;;;;;;;-5.86;91.50;101058.69;5133638;27;19923;-73
2022/01/23 00:17:53;;;;;;;;;;;;;;;-5.80;92.69;101051.19;5134308;27;20028;-71
2022/01/23 00:20:19;;;;;;;;;;;;;;;-5.79;93.12;101055.44;5135051;27;20146;-72
2022/01/23 00:22:51;;;;;;;;;;;;;;;-5.78;93.03;101052.06;5135387;27;19924;-69
2022/01/23 00:30:46;;;;;;;;;;;;;;;-5.73;94.31;101063.13;5135243;27;19954;-70
2022/01/23 00:33:13;;;;;;;;;;;;;;;-5.72;94.17;101055.56;5135118;27;19923;-70
2022/01/23 00:35:41;;;;;;;;;;;;;;;-5.69;94.60;101058.13;5135167;27;19938;-73
2022/01/23 00:38:10;;;;;;;;;;;;;;;-5.64;94.45;101067.50;5134869;27;19931;-73
2022/01/23 00:40:37;;;;;;;;;;;;;;;-5.65;94.37;101070.84;5134995;27;19923;-72
2022/01/23 00:43:13;;;;;;;;;;;;;;;-5.60;94.14;101070.13;5134704;27;19924;-72
2022/01/23 00:45:45;;;;;;;;;;;;;;;-5.58;94.23;101078.59;5135148;27;19928;-72
2022/01/23 00:48:12;;;;;;;;;;;;;;;-5.52;93.95;101075.31;5134849;27;19963;-72
2022/01/23 00:50:41;;;;;;;;;;;;;;;-5.53;94.23;101066.00;5134776;27;19928;-72
2022/01/23 00:53:10;;;;;;;;;;;;;;;-5.50;93.94;101046.63;5134684;27;19930;-72
2022/01/23 00:55:37;;;;;;;;;;;;;;;-5.49;94.21;101038.16;5134327;27;20388;-72
2022/01/23 00:58:04;;;;;;;;;;;;;;;-5.46;93.91;101044.97;5134197;27;19930;-73
2022/01/23 01:00:31;;;;;;;;;;;;;;;-5.44;93.96;101048.38;5134425;27;19923;-72
2022/01/23 01:02:58;;;;;;;;;;;;;;;-5.41;93.92;101063.66;5134657;27;19946;-72
2022/01/23 01:05:26;;;;;;;;;;;;;;;-5.39;93.63;101056.06;5134953;27;20268;-72
2022/01/23 01:07:52;;;;;;;;;;;;;;;-5.36;93.88;101059.50;5134521;27;19923;-73
2022/01/23 01:10:25;;;;;;;;;;;;;;;-5.32;93.22;101042.63;5134450;27;20938;-72
2022/01/23 01:12:56;;;;;;;;;;;;;;;-5.30;93.33;101038.44;5134238;27;20384;-72
2022/01/23 01:15:57;;;;;;;;;;;;;;;-5.27;93.60;101034.28;5134268;27;19924;-72
2022/01/23 01:32:11;;;;;;;;;;;;;;;-5.10;92.89;101039.56;5134059;27;21248;-72
2022/01/23 01:34:41;;;;;;;;;;;;;;;-5.07;92.94;101023.53;5133844;27;19930;-72
2022/01/23 01:37:09;;;;;;;;;;;;;;;-5.04;92.69;101010.88;5133579;27;19923;-73
2022/01/23 01:39:36;;;;;;;;;;;;;;;-5.03;93.38;100998.22;5134131;27;19924;-71
2022/01/23 01:42:04;;;;;;;;;;;;;;;-5.01;92.76;100998.22;5134322;27;19923;-73
2022/01/23 01:44:31;;;;;;;;;;;;;;;-5.00;92.78;101002.47;5133885;27;19923;-72
2022/01/23 01:46:58;;;;;;;;;;;;;;;-4.95;92.83;100994.94;5133977;27;19924;-73
2022/01/23 01:49:29;;;;;;;;;;;;;;;-4.94;92.99;100984.78;5133671;27;19924;-70
2022/01/23 01:51:56;;;;;;;;;;;;;;;-4.92;93.00;100975.50;5133599;27;20281;-70
2022/01/23 01:54:25;;;;;;;;;;;;;;;-4.88;93.03;100973.84;5133908;27;19931;-71
2022/01/23 01:56:54;;;;;;;;;;;;;;;-4.90;92.84;100963.69;5133498;27;19927;-73
2022/01/23 02:10:15;;;;;;;;;;;;;;;-4.80;93.17;100974.81;5133523;28;19931;-72
2022/01/23 02:13:08;;;;;;;;;;;;;;;-4.78;93.67;100972.28;5133297;28;19931;-71
2022/01/23 02:24:08;;;;;;;;;;;;;;;-4.73;93.88;100983.34;5133484;28;19984;-73
2022/01/23 02:51:29;;;;;;;;;;;;;;;-4.58;94.98;100958.09;5137232;27;19930;-74
2022/01/23 02:54:19;;;;;;;;;;;;;;;-4.55;94.95;100972.53;5137002;27;20444;-74
2022/01/23 02:56:49;;;;;;;;;;;;;;;-4.55;94.91;100965.75;5137090;27;19924;-73
2022/01/23 02:59:22;;;;;;;;;;;;;;;-4.50;95.20;100958.19;5136785;27;19923;-71
2022/01/23 03:02:02;;;;;;;;;;;;;;;-4.50;95.62;100948.88;5136891;27;19924;-73
2022/01/23 03:04:29;;;;;;;;;;;;;;;-4.51;95.83;100941.25;5136775;27;19923;-71
2022/01/23 03:07:10;;;;;;;;;;;;;;;-4.48;95.86;100953.97;5136512;27;20441;-73
2022/01/23 03:15:18;;;;;;;;;;;;;;;-4.42;95.36;100956.56;5101773;27;19976;-74
2022/01/23 03:26:16;;;;;;;;;;;;;;;-4.35;95.96;100930.38;5136663;27;19992;-73
2022/01/23 03:31:26;;;;;;;;;;;;;;;-4.32;96.08;100916.84;5135792;27;19931;-74
2022/01/23 03:33:53;;;;;;;;;;;;;;;-4.33;96.22;100916.00;5136221;27;19930;-75
2022/01/23 03:36:20;;;;;;;;;;;;;;;-4.32;96.46;100917.69;5136175;27;19923;-74
2022/01/23 03:38:47;;;;;;;;;;;;;;;-4.30;96.77;100922.81;5135873;27;19924;-74
2022/01/23 03:41:15;;;;;;;;;;;;;;;-4.29;96.36;100924.50;5136073;27;20377;-73
2022/01/23 03:43:41;;;;;;;;;;;;;;;-4.27;96.41;100908.44;5136012;27;20385;-73
2022/01/23 03:46:46;;;;;;;;;;;;;;;-4.25;96.92;100909.31;5135955;27;19929;-72
2022/01/23 03:49:31;;;;;;;;;;;;;;;-4.21;96.98;100910.19;5135128;27;20319;-73
2022/01/23 03:51:58;;;;;;;;;;;;;;;-4.19;96.51;100904.28;5135985;27;20007;-72
2022/01/23 03:54:26;;;;;;;;;;;;;;;-4.13;96.70;100912.78;5135735;27;20432;-74
2022/01/23 03:56:54;;;;;;;;;;;;;;;-4.13;97.02;100920.41;5135950;27;19977;-74
2022/01/23 03:59:21;;;;;;;;;;;;;;;-4.10;97.39;100912.81;5135647;27;19938;-72
2022/01/23 04:01:47;;;;;;;;;;;;;;;-4.08;97.35;100906.06;5135759;27;20013;-73
2022/01/23 04:04:26;;;;;;;;;;;;;;;-4.06;96.96;100895.06;5135567;27;19931;-72
2022/01/23 04:06:53;;;;;;;;;;;;;;;-4.06;97.10;100891.66;5135384;27;19923;-74
2022/01/23 04:09:19;;;;;;;;;;;;;;;-4.01;97.11;100884.91;5136351;27;19930;-74
2022/01/23 04:11:46;;;;;;;;;;;;;;;-4.00;97.53;100881.53;5135597;27;19931;-74
2022/01/23 04:14:16;;;;;;;;;;;;;;;-3.96;97.77;100884.13;5135471;27;19931;-72
2022/01/23 04:17:07;;;;;;;;;;;;;;;-3.93;97.61;100873.13;5135422;27;19931;-75
2022/01/23 04:19:43;;;;;;;;;;;;;;;-3.89;97.63;100873.97;5135288;27;19970;-74
2022/01/23 04:33:40;;;;;;;;;;;;;;;-3.72;98.44;100873.22;5135100;27;19930;-73
2022/01/23 05:00:51;;;;;;;;;;;;;;;-3.37;98.62;100881.88;5133326;27;20270;-74
2022/01/23 05:06:03;;;;;;;;;;;;;;;-3.35;98.91;100872.53;5134599;27;19930;-71
2022/01/23 05:08:33;;;;;;;;;;;;;;;-3.31;99.51;100879.38;5134793;27;19966;-74
2022/01/23 05:11:00;;;;;;;;;;;;;;;-3.28;99.11;100877.66;5134655;27;19923;-74
2022/01/23 05:13:27;;;;;;;;;;;;;;;-3.29;98.93;100863.25;5134389;27;19929;-72
2022/01/23 05:15:54;;;;;;;;;;;;;;;-3.25;98.65;100876.81;5134199;27;19930;-74
2022/01/23 05:18:22;;;;;;;;;;;;;;;-3.23;99.30;100885.31;5134072;27;20277;-73
2022/01/23 05:20:55;;;;;;;;;;;;;;;-3.22;99.37;100873.44;5134357;27;19927;-74
2022/01/23 05:23:22;;;;;;;;;;;;;;;-3.22;99.16;100881.06;5134074;27;20289;-74
2022/01/23 05:25:48;;;;;;;;;;;;;;;-3.15;99.47;100880.25;5134111;27;19923;-73
2022/01/23 05:28:15;;;;;;;;;;;;;;;-3.14;99.43;100864.97;5134106;27;19923;-72
2022/01/23 05:30:43;;;;;;;;;;;;;;;-3.12;99.42;100857.34;5134375;27;19938;-74
2022/01/23 05:33:09;;;;;;;;;;;;;;;-3.04;99.84;100852.28;5134201;27;20348;-75
2022/01/23 05:35:38;;;;;;;;;;;;;;;-2.93;100.00;100853.16;5134116;27;19950;-74
2022/01/23 05:38:04;;;;;;;;;;;;;;;-2.87;100.00;100846.38;5133931;27;20266;-74
2022/01/23 05:40:31;;;;;;;;;;;;;;;-2.70;100.00;100848.09;5133855;27;19927;-74
2022/01/23 05:42:57;;;;;;;;;;;;;;;-2.49;100.00;100839.59;5133818;27;20290;-74
2022/01/23 05:45:24;;;;;;;;;;;;;;;-2.45;100.00;100852.34;5133840;27;19924;-73
2022/01/23 05:47:51;;;;;;;;;;;;;;;-2.32;100.00;100855.75;5133845;27;19931;-74
2022/01/23 05:50:17;;;;;;;;;;;;;;;-2.28;100.00;100843.84;5133546;27;19924;-73
2022/01/23 05:52:45;;;;;;;;;;;;;;;-2.20;100.00;100848.09;5134071;27;19924;-74
2022/01/23 05:55:14;;;;;;;;;;;;;;;-2.13;100.00;100828.53;5133913;27;19924;-73
2022/01/23 05:57:41;;;;;;;;;;;;;;;-1.98;100.00;100841.25;5134009;27;19928;-73
2022/01/23 06:00:08;;;;;;;;;;;;;;;-1.92;100.00;100844.66;5133713;28;19939;-74
2022/01/23 06:02:35;;;;;;;;;;;;;;;-1.84;100.00;100860.78;5133895;28;19923;-74
2022/01/23 06:05:01;;;;;;;;;;;;;;;-1.70;100.00;100847.97;5133588;28;19923;-74
2022/01/23 06:07:28;;;;;;;;;;;;;;;-1.66;100.00;100834.38;5133787;28;19972;-73
2022/01/23 06:09:56;;;;;;;;;;;;;;;-1.63;100.00;100839.47;5133493;28;19923;-73
2022/01/23 06:12:22;;;;;;;;;;;;;;;-1.60;100.00;100836.88;5136697;27;19934;-74
2022/01/23 06:14:49;;;;;;;;;;;;;;;-1.61;100.00;100827.56;5138017;27;19928;-73
2022/01/23 06:17:15;;;;;;;;;;;;;;;-1.64;100.00;100822.47;5137891;27;19946;-73
2022/01/23 06:19:42;;;;;;;;;;;;;;;-1.60;100.00;100831.78;5137634;27;19924;-73
2022/01/23 06:22:09;;;;;;;;;;;;;;;-1.50;100.00;100830.91;5137546;27;19928;-74
2022/01/23 06:24:37;;;;;;;;;;;;;;;-1.44;100.00;100832.56;5137463;27;19923;-73
2022/01/23 06:27:05;;;;;;;;;;;;;;;-1.43;100.00;100830.03;5137896;27;19927;-74
2022/01/23 06:29:33;;;;;;;;;;;;;;;-1.34;100.00;100830.00;5137368;27;19930;-72
2022/01/23 06:32:00;;;;;;;;;;;;;;;-1.39;100.00;100844.47;5137568;27;19927;-72
2022/01/23 06:34:27;;;;;;;;;;;;;;;-1.35;100.00;100852.97;5137373;27;19982;-74
2022/01/23 06:36:54;;;;;;;;;;;;;;;-1.34;100.00;100858.06;5137509;27;19923;-73
2022/01/23 06:39:22;;;;;;;;;;;;;;;-1.30;100.00;100856.34;5137217;27;19969;-72
2022/01/23 06:41:49;;;;;;;;;;;;;;;-1.22;100.00;100846.94;5137695;27;19923;-73
2022/01/23 06:44:17;;;;;;;;;;;;;;;-1.08;100.00;100858.78;5137380;27;20369;-72
2022/01/23 06:46:44;;;;;;;;;;;;;;;-0.91;100.00;100864.63;5137052;27;19931;-73
2022/01/23 06:49:11;;;;;;;;;;;;;;;-0.78;99.99;100865.41;5136825;27;20305;-73
2022/01/23 06:51:38;;;;;;;;;;;;;;;-0.77;99.17;100874.75;5137112;27;20381;-73
2022/01/23 06:54:04;;;;;;;;;;;;;;;-0.76;99.68;100869.66;5136978;27;20001;-73
2022/01/23 06:56:31;;;;;;;;;;;;;;;-0.68;99.70;100882.38;5137253;27;20270;-73
2022/01/23 06:58:58;;;;;;;;;;;;;;;-0.67;99.14;100874.72;5136823;27;19924;-73
2022/01/23 07:01:26;;;;;;;;;;;;;;;-0.71;98.55;100880.69;5136865;27;19924;-73
2022/01/23 07:03:53;;;;;;;;;;;;;;;-0.67;99.71;100882.38;5136925;27;19930;-72
2022/01/23 07:06:19;;;;;;;;;;;;;;;-0.63;99.17;100895.97;5136945;27;19930;-73
2022/01/23 07:08:46;;;;;;;;;;;;;;;-0.66;98.24;100899.41;5137115;27;19924;-73
2022/01/23 07:11:12;;;;;;;;;;;;;;;-0.62;99.14;100894.25;5136697;27;19934;-73
2022/01/23 07:13:39;;;;;;;;;;;;;;;-0.61;99.01;100901.09;5136609;27;19924;-71
2022/01/23 07:16:06;;;;;;;;;;;;;;;-0.54;98.99;100907.81;5136551;27;19923;-73
2022/01/23 07:18:34;;;;;;;;;;;;;;;-0.47;98.83;100910.34;5136294;27;19927;-73
2022/01/23 07:21:00;;;;;;;;;;;;;;;-0.51;98.50;100911.22;5136834;27;19924;-73
2022/01/23 07:23:27;;;;;;;;;;;;;;;-0.49;98.85;100908.66;5135525;27;19923;-73
2022/01/23 07:25:54;;;;;;;;;;;;;;;-0.48;98.76;100915.47;5136283;27;19930;-73
2022/01/23 07:28:23;;;;;;;;;;;;;;;-0.54;98.63;100915.50;5136618;27;19924;-73
2022/01/23 07:30:52;;;;;;;;;;;;;;;-0.56;98.90;100915.53;5136475;27;20331;-71
2022/01/23 07:33:19;;;;;;;;;;;;;;;-0.59;98.47;100924.91;5136417;27;19981;-73
2022/01/23 07:35:47;;;;;;;;;;;;;;;-0.52;99.43;100931.69;5136320;27;19924;-71
2022/01/23 07:38:16;;;;;;;;;;;;;;;-0.59;99.05;100938.56;5136223;27;19938;-73
2022/01/23 07:40:43;;;;;;;;;;;;;;;-0.60;99.21;100943.66;5136244;27;19932;-71
2022/01/23 07:43:10;;;;;;;;;;;;;;;-0.57;99.06;100951.31;5136080;27;19930;-72
2022/01/23 07:45:36;;;;;;;;;;;;;;;-0.62;98.96;100951.31;5136144;27;19923;-72
2022/01/23 07:48:03;;;;;;;;;;;;;;;-0.63;98.78;100939.41;5136092;27;20277;-72
2022/01/23 07:50:29;;;;;;;;;;;;;;;-0.68;98.66;100934.31;5136004;27;19930;-74
2022/01/23 07:52:57;;;;;;;;;;;;;;;-0.77;98.98;100913.97;5136138;27;19924;-73
2022/01/23 07:55:24;;;;;;;;;;;;;;;-0.75;98.99;100907.09;5135915;27;19932;-71
2022/01/23 07:57:52;;;;;;;;;;;;;;;-0.78;99.24;100917.34;5135938;27;19930;-73
2022/01/23 08:00:19;;;;;;;;;;;;;;;-0.86;99.31;100931.88;5135582;27;20274;-74
2022/01/23 08:02:46;;;;;;;;;;;;;;;-0.92;99.65;100940.44;5135701;27;19930;-74
2022/01/23 08:05:13;;;;;;;;;;;;;;;-1.00;99.08;100949.84;5135648;27;20283;-73
2022/01/23 08:07:39;;;;;;;;;;;;;;;-1.05;99.37;100953.25;5135996;27;19923;-74
2022/01/23 08:10:08;;;;;;;;;;;;;;;-1.04;99.51;100943.03;5135741;27;20281;-74
2022/01/23 08:12:35;;;;;;;;;;;;;;;-1.19;99.67;100956.69;5135531;27;19938;-73
2022/01/23 08:15:03;;;;;;;;;;;;;;;-1.17;99.90;100959.25;5135525;27;20377;-73
2022/01/23 08:17:29;;;;;;;;;;;;;;;-1.13;99.70;100958.38;5135594;27;19923;-73
2022/01/23 08:19:57;;;;;;;;;;;;;;;-1.15;100.00;100963.50;5135451;27;19923;-71
2022/01/23 08:22:24;;;;;;;;;;;;;;;-1.13;100.00;100969.47;5135638;27;20354;-72
2022/01/23 08:24:52;;;;;;;;;;;;;;;-1.16;99.70;100971.16;5135610;27;19923;-73
2022/01/23 08:27:20;;;;;;;;;;;;;;;-1.13;100.00;100968.59;5135191;27;20441;-72
2022/01/23 08:29:46;;;;;;;;;;;;;;;-1.10;100.00;100960.94;5135399;27;19927;-72
2022/01/23 08:32:13;;;;;;;;;;;;;;;-1.07;100.00;100962.63;5135354;27;19931;-72
2022/01/23 08:34:40;;;;;;;;;;;;;;;-1.07;100.00;100953.25;5135064;27;19927;-71
2022/01/23 08:37:08;;;;;;;;;;;;;;;-1.07;99.98;100949.88;5135075;27;19977;-73
2022/01/23 08:39:36;;;;;;;;;;;;;;;-1.08;99.93;100958.38;5134886;27;19923;-73
2022/01/23 08:42:03;;;;;;;;;;;;;;;-1.06;99.62;100965.16;5134723;27;19975;-72
2022/01/23 08:44:31;;;;;;;;;;;;;;;-0.94;99.65;100952.34;5134858;27;19931;-71
2022/01/23 08:46:58;;;;;;;;;;;;;;;-0.92;99.42;100960.03;5134887;27;19930;-71
2022/01/23 08:49:26;;;;;;;;;;;;;;;-0.91;99.71;100959.16;5134817;27;20341;-62
2022/01/23 08:51:53;;;;;;;;;;;;;;;-0.87;99.51;100968.50;5134891;27;20378;-62
2022/01/23 08:54:20;;;;;;;;;;;;;;;-0.86;99.72;100970.19;5134854;27;20010;-67
2022/01/23 08:56:47;;;;;;;;;;;;;;;-0.85;99.78;100982.09;5134601;27;19930;-62
2022/01/23 08:59:13;;;;;;;;;;;;;;;-0.82;99.62;100981.25;5134673;27;19927;-62
2022/01/23 09:01:42;;;;;;;;;;;;;;;-0.83;99.43;100975.28;5134592;27;19976;-63
2022/01/23 09:04:11;;;;;;;;;;;;;;;-0.82;99.84;100982.13;5134267;27;20022;-63
2022/01/23 09:06:38;;;;;;;;;;;;;;;-0.88;99.55;100985.53;5134405;27;19998;-68
2022/01/23 09:09:07;;;;;;;;;;;;;;;-0.81;99.42;101000.84;5134434;27;19928;-67
2022/01/23 09:11:41;;;;;;;;;;;;;;;-0.78;99.52;101009.34;5134778;27;19976;-64
2022/01/23 09:14:10;;;;;;;;;;;;;;;-0.76;99.41;101020.41;5134545;27;19923;-65
2022/01/23 09:16:37;;;;;;;;;;;;;;;-0.76;99.28;101015.28;5134295;27;19923;-67
2022/01/23 09:19:06;;;;;;;;;;;;;;;-0.75;99.54;101027.19;5134030;27;19927;-63
2022/01/23 09:21:32;;;;;;;;;;;;;;;-0.72;99.05;101016.13;5134300;27;19930;-65
2022/01/23 09:23:59;;;;;;;;;;;;;;;-0.74;98.96;101022.97;5134705;27;19924;-63
2022/01/23 09:26:26;;;;;;;;;;;;;;;-0.71;99.20;101021.22;5134548;27;19927;-64
2022/01/23 09:28:57;;;;;;;;;;;;;;;-0.69;99.11;101024.63;5133890;27;19924;-64
2022/01/23 09:31:32;;;;;;;;;;;;;;;-0.71;99.15;101022.94;5133978;27;19928;-64
2022/01/23 09:33:59;;;;;;;;;;;;;;;-0.68;98.36;101020.38;5134234;27;20018;-63
2022/01/23 09:36:28;;;;;;;;;;;;;;;-0.73;98.56;101022.09;5134167;27;19923;-63
2022/01/23 09:38:55;;;;;;;;;;;;;;;-0.70;98.66;101017.81;5133647;27;19931;-63
2022/01/23 09:41:23;;;;;;;;;;;;;;;-0.75;98.85;101011.88;5133753;27;19934;-64
2022/01/23 09:43:50;;;;;;;;;;;;;;;-0.75;98.49;101014.41;5134093;27;19923;-63
2022/01/23 09:46:17;;;;;;;;;;;;;;;-0.78;98.81;101026.38;5133310;27;19923;-63
2022/01/23 09:48:46;;;;;;;;;;;;;;;-0.78;98.54;101024.66;5133549;27;19923;-64
2022/01/23 09:51:13;;;;;;;;;;;;;;;-0.75;99.06;101032.31;5134163;27;19924;-65
2022/01/23 09:53:42;;;;;;;;;;;;;;;-0.72;98.53;101040.00;5133856;27;19976;-65
2022/01/23 09:56:10;;;;;;;;;;;;;;;-0.64;99.10;101049.31;5133656;27;19923;-62
2022/01/23 09:58:38;;;;;;;;;;;;;;;-0.58;98.34;101039.06;5133662;27;19924;-63
2022/01/23 10:01:05;;;;;;;;;;;;;;;-0.52;98.41;101039.03;5133729;28;19927;-63
2022/01/23 10:03:31;;;;;;;;;;;;;;;-0.48;98.52;101045.84;5133935;28;19923;-64
2022/01/23 10:05:58;;;;;;;;;;;;;;;-0.43;98.40;101063.72;5134061;28;19923;-63
2022/01/23 10:08:28;;;;;;;;;;;;;;;-0.31;98.83;101064.50;5134041;28;19930;-62
2022/01/23 10:10:57;;;;;;;;;;;;;;;-0.22;98.32;101071.28;5133608;28;20025;-64
2022/01/23 10:13:24;;;;;;;;;;;;;;;-0.16;97.99;101070.38;5133557;28;19963;-64
2022/01/23 10:15:51;;;;;;;;;;;;;;;-0.15;96.96;101070.38;5133436;28;19924;-64
2022/01/23 10:18:18;;;;;;;;;;;;;;;-0.11;97.36;101074.59;5133502;28;19924;-64
2022/01/23 10:20:46;;;;;;;;;;;;;;;-0.13;97.65;101078.91;5133452;28;19923;-63
2022/01/23 10:23:12;;;;;;;;;;;;;;;-0.07;97.12;101078.00;5133572;28;19962;-63
2022/01/23 10:25:40;;;;;;;;;;;;;;;-0.07;96.86;101062.66;5133417;28;20312;-65
2022/01/23 10:28:09;;;;;;;;;;;;;;;-0.04;97.53;101060.94;5133454;28;20038;-64
2022/01/23 10:30:37;;;;;;;;;;;;;;;0.00;97.35;101066.91;5133429;28;19923;-64
2022/01/23 10:33:07;;;;;;;;;;;;;;;0.04;97.11;101062.59;5133768;28;19928;-65
2022/01/23 10:35:34;;;;;;;;;;;;;;;0.05;96.94;101062.56;5133473;28;20384;-64
2022/01/23 10:38:12;;;;;;;;;;;;;;;0.10;97.53;101057.41;5133669;28;19924;-63
2022/01/23 10:40:48;;;;;;;;;;;;;;;0.13;96.88;101058.25;5133216;28;19932;-67
2022/01/23 10:48:45;;;;;;;;;;;;;;;0.30;96.70;101055.56;5133169;28;19938;-69
2022/01/23 10:51:16;;;;;;;;;;;;;;;0.32;96.31;101053.84;5133064;28;19923;-68
2022/01/23 10:54:13;;;;;;;;;;;;;;;0.41;95.97;101071.72;5133417;28;19924;-69
2022/01/23 10:56:55;;;;;;;;;;;;;;;0.48;96.05;101077.59;5049931;28;20035;-68
2022/01/23 10:59:23;;;;;;;;;;;;;;;0.46;96.42;101081.03;5124398;27;19927;-69
2022/01/23 11:02:00;;;;;;;;;;;;;;;0.51;96.34;101076.72;5136761;27;19934;-68
2022/01/23 11:04:27;;;;;;;;;;;;;;;0.51;95.60;101075.00;5137026;27;19927;-67
2022/01/23 11:06:54;;;;;;;;;;;;;;;0.50;95.36;101075.03;5136746;27;19930;-66
2022/01/23 11:09:25;;;;;;;;;;;;;;;0.53;95.81;101080.97;5137242;27;20284;-68
2022/01/23 11:11:59;;;;;;;;;;;;;;;0.57;96.16;101079.25;5136651;27;20377;-68
2022/01/23 11:17:25;;;;;;;;;;;;;;;0.63;95.86;101071.50;5136650;27;20400;-67
2022/01/23 11:19:56;;;;;;;;;;;;;;;0.57;95.99;101084.38;5136436;27;20270;-67
2022/01/23 11:22:24;;;;;;;;;;;;;;;0.65;96.14;101083.44;5136483;27;19923;-69
2022/01/23 11:24:51;;;;;;;;;;;;;;;0.64;95.97;101080.88;5136756;27;19928;-68
2022/01/23 11:27:19;;;;;;;;;;;;;;;0.64;96.02;101084.31;5136262;27;19924;-68
2022/01/23 11:29:54;;;;;;;;;;;;;;;0.71;96.15;101076.56;5136310;27;19927;-68
2022/01/23 11:32:22;;;;;;;;;;;;;;;0.76;96.21;101074.81;5136574;27;20285;-68
2022/01/23 11:34:49;;;;;;;;;;;;;;;0.78;96.37;101075.66;5136092;27;20388;-68
2022/01/23 11:37:17;;;;;;;;;;;;;;;0.84;95.64;101076.41;5136305;27;19931;-69
2022/01/23 11:39:48;;;;;;;;;;;;;;;0.88;96.02;101074.69;5136334;27;19923;-63
2022/01/23 11:53:47;;;;;;;;;;;;;;;0.88;95.97;101058.47;5128681;27;20392;-63
2022/01/23 11:56:36;;;;;;;;;;;;;;;0.87;95.85;101065.28;5136131;27;20293;-65
2022/01/23 11:59:15;;;;;;;;;;;;;;;0.82;95.46;101064.50;5135807;27;19927;-63
2022/01/23 12:01:45;;;;;;;;;;;;;;;0.82;96.14;101067.94;5135635;27;19931;-64
2022/01/23 12:04:17;;;;;;;;;;;;;;;0.92;96.19;101058.41;5135508;27;20018;-65
2022/01/23 12:06:45;;;;;;;;;;;;;;;0.90;95.96;101064.41;5135760;27;19923;-67
2022/01/23 12:09:21;;;;;;;;;;;;;;;0.92;95.43;101067.81;5135636;27;20377;-64
2022/01/23 12:12:20;;;;;;;;;;;;;;;0.90;96.00;101062.72;5135582;27;19930;-63
2022/01/23 12:17:45;;;;;;;;;;;;;;;0.84;96.04;101060.22;5135403;27;19934;-63
2022/01/23 12:20:13;;;;;;;;;;;;;;;0.81;96.20;101060.25;5135235;27;19930;-63
2022/01/23 12:22:41;;;;;;;;;;;;;;;0.82;96.90;101055.13;5127822;27;20266;-63
2022/01/23 12:25:18;;;;;;;;;;;;;;;0.82;96.66;101054.25;5119068;27;19930;-63
2022/01/23 12:27:45;;;;;;;;;;;;;;;0.90;96.29;101049.91;5114567;28;19931;-65
2022/01/23 12:30:31;;;;;;;;;;;;;;;0.85;96.44;101042.28;5114407;28;19946;-62
2022/01/23 12:33:28;;;;;;;;;;;;;;;0.86;96.91;101040.56;5114328;28;20332;-64
2022/01/23 12:35:57;;;;;;;;;;;;;;;0.83;96.41;101025.22;5079342;28;19969;-66
2022/01/23 12:38:28;;;;;;;;;;;;;;;0.82;96.25;101044.88;5116509;27;19924;-64
2022/01/23 12:40:55;;;;;;;;;;;;;;;0.85;96.75;101044.00;5134877;27;19923;-65
2022/01/23 12:43:24;;;;;;;;;;;;;;;0.84;97.08;101047.41;5134758;27;19923;-65
2022/01/23 12:45:54;;;;;;;;;;;;;;;0.83;96.48;101049.13;5134597;27;19930;-64
2022/01/23 12:48:45;;;;;;;;;;;;;;;0.85;96.72;101044.84;5134630;27;20281;-64
2022/01/23 12:51:26;;;;;;;;;;;;;;;0.91;96.93;101049.03;5135003;27;20338;-63
2022/01/23 12:54:23;;;;;;;;;;;;;;;0.93;96.67;101047.31;5134235;27;19924;-63
2022/01/23 12:56:52;;;;;;;;;;;;;;;0.96;96.35;101046.44;5051084;28;19932;-63
2022/01/23 12:59:24;;;;;;;;;;;;;;;0.99;96.39;101057.50;5115657;27;19959;-63
2022/01/23 13:01:57;;;;;;;;;;;;;;;1.13;96.54;101061.59;5134430;27;19923;-63
2022/01/23 13:04:24;;;;;;;;;;;;;;;1.18;96.07;101067.53;5134180;27;20366;-63
2022/01/23 13:06:53;;;;;;;;;;;;;;;1.31;95.87;101066.56;5134558;27;19923;-63
2022/01/23 13:09:26;;;;;;;;;;;;;;;1.22;95.55;101056.38;5093646;28;19987;-62
2022/01/23 13:12:02;;;;;;;;;;;;;;;1.28;95.82;101051.19;5093405;28;19924;-63
2022/01/23 13:14:37;;;;;;;;;;;;;;;1.35;95.37;101045.13;5093206;28;20396;-63
2022/01/23 13:17:32;;;;;;;;;;;;;;;1.34;95.30;101051.13;5093544;28;19931;-67
2022/01/23 13:26:24;;;;;;;;;;;;;;;1.40;95.28;101043.34;5093061;28;19924;-66
2022/01/23 13:31:08;;;;;;;;;;;;;;;1.79;94.30;101037.72;5107125;28;20020;-62
2022/01/23 13:33:38;;;;;;;;;;;;;;;1.78;94.36;101038.59;5113277;28;20381;-61
2022/01/23 13:36:07;;;;;;;;;;;;;;;1.72;94.52;101039.50;5113187;28;20506;-68
2022/01/23 13:38:35;;;;;;;;;;;;;;;1.72;94.27;101036.94;5113593;28;19924;-62
2022/01/23 13:41:10;;;;;;;;;;;;;;;1.81;94.01;101031.69;5113371;28;19931;-66
2022/01/23 13:52:09;;;;;;;;;;;;;;;1.82;93.98;101023.09;5113193;28;19930;-64
2022/01/23 14:00:00;;;;;;;;;;;;;;;1.81;94.13;101006.03;5112874;28;20368;-64
2022/01/23 14:02:28;;;;;;;;;;;;;;;1.79;93.64;101004.34;5112934;28;20370;-63
2022/01/23 14:04:56;;;;;;;;;;;;;;;1.89;93.40;101006.75;5112803;28;19931;-63
2022/01/23 14:07:23;;;;;;;;;;;;;;;1.91;93.49;101017.00;5112907;28;19931;-64
2022/01/23 14:09:50;;;;;;;;;;;;;;;1.91;93.66;101015.28;5113152;28;19924;-63
2022/01/23 14:12:18;;;;;;;;;;;;;;;1.89;93.60;101008.47;5112996;28;20293;-65
2022/01/23 14:14:52;;;;;;;;;;;;;;;1.86;93.63;101011.94;5112777;28;19998;-65
2022/01/23 14:17:20;;;;;;;;;;;;;;;1.91;94.14;101012.72;5112962;28;20369;-64
2022/01/23 14:19:57;;;;;;;;;;;;;;;1.97;93.77;101016.91;5112907;28;19928;-63
2022/01/23 14:22:26;;;;;;;;;;;;;;;1.87;92.95;101029.00;5112932;28;19929;-64
2022/01/23 14:24:53;;;;;;;;;;;;;;;1.78;93.38;101036.03;5113028;28;19924;-63
2022/01/23 14:27:21;;;;;;;;;;;;;;;1.67;93.41;101043.84;5112972;28;19924;-63
2022/01/23 14:29:50;;;;;;;;;;;;;;;1.51;93.90;101033.78;5112716;28;19931;-63
2022/01/23 14:32:19;;;;;;;;;;;;;;;1.38;93.98;101032.25;5114089;28;20285;-62
2022/01/23 14:34:47;;;;;;;;;;;;;;;1.33;95.06;101041.72;5117276;28;19923;-63
2022/01/23 14:37:14;;;;;;;;;;;;;;;1.24;94.04;101037.56;5116700;28;19924;-62
2022/01/23 14:39:40;;;;;;;;;;;;;;;1.13;94.57;101023.16;5116566;28;19935;-63
2022/01/23 14:42:10;;;;;;;;;;;;;;;1.00;95.42;101027.59;5116611;28;19927;-63
2022/01/23 14:44:37;;;;;;;;;;;;;;;0.79;95.35;101039.75;5116657;28;19930;-62
2022/01/23 14:47:04;;;;;;;;;;;;;;;0.68;95.94;101038.19;5116427;28;20373;-63
2022/01/23 14:49:32;;;;;;;;;;;;;;;0.64;96.16;101030.53;5116387;28;20266;-64
2022/01/23 14:52:01;;;;;;;;;;;;;;;0.54;96.70;101021.25;5116803;28;19992;-65
2022/01/23 14:54:30;;;;;;;;;;;;;;;0.49;96.97;101025.56;5116624;28;20014;-63
2022/01/23 14:56:58;;;;;;;;;;;;;;;0.48;97.00;101028.97;5116618;28;20049;-63
2022/01/23 14:59:24;;;;;;;;;;;;;;;0.46;97.66;101033.25;5116374;28;19931;-63
2022/01/23 15:01:51;;;;;;;;;;;;;;;0.39;97.54;101035.03;5116330;28;19930;-63
2022/01/23 15:04:20;;;;;;;;;;;;;;;0.37;97.99;101043.56;5116803;28;19931;-64
2022/01/23 15:06:47;;;;;;;;;;;;;;;0.47;97.96;101046.91;5116481;28;19945;-64
2022/01/23 15:09:17;;;;;;;;;;;;;;;0.48;98.28;101030.69;5116672;28;19974;-62
2022/01/23 15:11:44;;;;;;;;;;;;;;;0.50;98.13;101029.81;5116608;28;19930;-64
2022/01/23 15:14:11;;;;;;;;;;;;;;;0.52;97.54;101030.63;5115892;28;19923;-66
2022/01/23 15:16:38;;;;;;;;;;;;;;;0.61;98.37;101034.81;5116191;28;19981;-64
2022/01/23 15:19:04;;;;;;;;;;;;;;;0.59;97.66;101027.16;5116019;28;19931;-67
2022/01/23 15:21:31;;;;;;;;;;;;;;;0.51;97.15;101026.38;5115741;28;19931;-65
2022/01/23 15:23:58;;;;;;;;;;;;;;;0.44;97.85;101029.88;5116030;28;19928;-66
2022/01/23 15:26:27;;;;;;;;;;;;;;;0.38;98.09;101024.78;5115539;28;19924;-64
2022/01/23 15:28:54;;;;;;;;;;;;;;;0.31;98.01;101036.81;5116018;28;19924;-64
2022/01/23 15:31:22;;;;;;;;;;;;;;;0.28;98.75;101046.19;5115976;28;19924;-65
2022/01/23 15:33:48;;;;;;;;;;;;;;;0.33;98.60;101031.66;5116063;28;19923;-65
2022/01/23 15:36:15;;;;;;;;;;;;;;;0.30;98.92;101016.31;5115697;28;19924;-62